sensor_id;sensor_type;location;lat;lon;timestamp;P1;durP1;ratioP1;P2;durP2;ratioP2
67041;SDS011;53949;47.790;18.750;2023-06-14T00:01:29;2.83;;;2.05;;
67041;SDS011;53949;47.790;18.750;2023-06-14T00:04:33;3.30;;;1.90;;
67041;SDS011;53949;47.790;18.750;2023-06-14T00:07:36;2.25;;;1.67;;
67041;SDS011;53949;47.790;18.750;2023-06-14T00:10:46;1.73;;;1.60;;
67041;SDS011;53949;47.790;18.750;2023-06-14T00:13:49;3.25;;;2.10;;
67041;SDS011;53949;47.790;18.750;2023-06-14T00:16:53;2.47;;;1.80;;
67041;SDS011;53949;47.790;18.750;2023-06-14T00:20:01;2.33;;;2.12;;
67041;SDS011;53949;47.790;18.750;2023-06-14T00:23:07;2.25;;;1.67;;
67041;SDS011;53949;47.790;18.750;2023-06-14T00:26:11;2.35;;;2.10;;
67041;SDS011;53949;47.790;18.750;2023-06-14T00:29:15;5.22;;;2.50;;
67041;SDS011;53949;47.790;18.750;2023-06-14T00:32:18;2.40;;;1.85;;
67041;SDS011;53949;47.790;18.750;2023-06-14T00:35:22;3.65;;;2.40;;
67041;SDS011;53949;47.790;18.750;2023-06-14T00:38:25;4.37;;;2.03;;
67041;SDS011;53949;47.790;18.750;2023-06-14T00:41:28;2.25;;;1.83;;
67041;SDS011;53949;47.790;18.750;2023-06-14T00:44:31;4.15;;;2.03;;
67041;SDS011;53949;47.790;18.750;2023-06-14T00:47:35;2.75;;;2.20;;
67041;SDS011;53949;47.790;18.750;2023-06-14T00:50:40;3.15;;;2.65;;
67041;SDS011;53949;47.790;18.750;2023-06-14T00:53:44;3.83;;;2.67;;
67041;SDS011;53949;47.790;18.750;2023-06-14T00:56:49;4.10;;;2.40;;
67041;SDS011;53949;47.790;18.750;2023-06-14T00:59:53;4.20;;;2.80;;
67041;SDS011;53949;47.790;18.750;2023-06-14T01:02:58;8.07;;;2.60;;
67041;SDS011;53949;47.790;18.750;2023-06-14T01:06:12;2.95;;;2.60;;
67041;SDS011;53949;47.790;18.750;2023-06-14T01:09:32;4.03;;;3.08;;
67041;SDS011;53949;47.790;18.750;2023-06-14T01:12:53;3.60;;;2.70;;
67041;SDS011;53949;47.790;18.750;2023-06-14T01:16:20;4.65;;;2.28;;
67041;SDS011;53949;47.790;18.750;2023-06-14T01:19:24;5.43;;;2.53;;
67041;SDS011;53949;47.790;18.750;2023-06-14T01:22:29;4.78;;;2.83;;
67041;SDS011;53949;47.790;18.750;2023-06-14T01:25:32;5.43;;;3.28;;
67041;SDS011;53949;47.790;18.750;2023-06-14T01:28:35;3.97;;;2.62;;
67041;SDS011;53949;47.790;18.750;2023-06-14T01:31:39;3.75;;;2.90;;
67041;SDS011;53949;47.790;18.750;2023-06-14T01:34:44;4.70;;;2.72;;
67041;SDS011;53949;47.790;18.750;2023-06-14T01:37:48;4.90;;;3.10;;
67041;SDS011;53949;47.790;18.750;2023-06-14T01:40:52;3.75;;;2.85;;
67041;SDS011;53949;47.790;18.750;2023-06-14T01:43:59;4.68;;;3.25;;
67041;SDS011;53949;47.790;18.750;2023-06-14T01:47:03;5.82;;;3.35;;
67041;SDS011;53949;47.790;18.750;2023-06-14T01:50:07;4.20;;;2.97;;
67041;SDS011;53949;47.790;18.750;2023-06-14T01:53:11;4.75;;;3.10;;
67041;SDS011;53949;47.790;18.750;2023-06-14T01:56:14;4.25;;;3.20;;
67041;SDS011;53949;47.790;18.750;2023-06-14T01:59:17;5.53;;;3.05;;
67041;SDS011;53949;47.790;18.750;2023-06-14T02:02:20;5.47;;;3.30;;
67041;SDS011;53949;47.790;18.750;2023-06-14T02:05:24;5.53;;;3.17;;
67041;SDS011;53949;47.790;18.750;2023-06-14T02:08:27;4.82;;;3.15;;
67041;SDS011;53949;47.790;18.750;2023-06-14T02:11:30;4.78;;;3.42;;
67041;SDS011;53949;47.790;18.750;2023-06-14T02:14:34;4.40;;;3.28;;
67041;SDS011;53949;47.790;18.750;2023-06-14T02:17:37;5.07;;;3.47;;
67041;SDS011;53949;47.790;18.750;2023-06-14T02:20:40;7.30;;;3.45;;
67041;SDS011;53949;47.790;18.750;2023-06-14T02:23:43;4.72;;;3.42;;
67041;SDS011;53949;47.790;18.750;2023-06-14T02:26:47;4.97;;;2.92;;
67041;SDS011;53949;47.790;18.750;2023-06-14T02:29:51;4.05;;;2.60;;
67041;SDS011;53949;47.790;18.750;2023-06-14T02:32:54;2.90;;;2.42;;
67041;SDS011;53949;47.790;18.750;2023-06-14T02:35:57;6.80;;;2.58;;
67041;SDS011;53949;47.790;18.750;2023-06-14T02:39:01;4.18;;;2.83;;
67041;SDS011;53949;47.790;18.750;2023-06-14T02:42:04;5.40;;;3.40;;
67041;SDS011;53949;47.790;18.750;2023-06-14T02:45:09;5.45;;;3.25;;
67041;SDS011;53949;47.790;18.750;2023-06-14T02:48:12;4.70;;;3.53;;
67041;SDS011;53949;47.790;18.750;2023-06-14T02:51:16;7.00;;;3.70;;
67041;SDS011;53949;47.790;18.750;2023-06-14T02:54:19;4.97;;;3.25;;
67041;SDS011;53949;47.790;18.750;2023-06-14T02:57:24;6.55;;;3.72;;
67041;SDS011;53949;47.790;18.750;2023-06-14T03:00:27;6.00;;;2.95;;
67041;SDS011;53949;47.790;18.750;2023-06-14T03:03:33;4.45;;;3.12;;
67041;SDS011;53949;47.790;18.750;2023-06-14T03:06:36;5.65;;;3.28;;
67041;SDS011;53949;47.790;18.750;2023-06-14T03:09:40;6.70;;;3.62;;
67041;SDS011;53949;47.790;18.750;2023-06-14T03:12:44;5.70;;;3.62;;
67041;SDS011;53949;47.790;18.750;2023-06-14T03:15:48;6.68;;;3.50;;
67041;SDS011;53949;47.790;18.750;2023-06-14T03:18:53;6.75;;;4.00;;
67041;SDS011;53949;47.790;18.750;2023-06-14T03:21:57;7.60;;;4.20;;
67041;SDS011;53949;47.790;18.750;2023-06-14T03:25:02;5.50;;;3.85;;
67041;SDS011;53949;47.790;18.750;2023-06-14T03:28:08;5.45;;;3.53;;
67041;SDS011;53949;47.790;18.750;2023-06-14T03:31:12;5.62;;;3.15;;
67041;SDS011;53949;47.790;18.750;2023-06-14T03:34:16;6.65;;;3.20;;
67041;SDS011;53949;47.790;18.750;2023-06-14T03:37:20;7.07;;;3.50;;
67041;SDS011;53949;47.790;18.750;2023-06-14T03:40:23;6.62;;;3.33;;
67041;SDS011;53949;47.790;18.750;2023-06-14T03:46:33;6.07;;;3.65;;
67041;SDS011;53949;47.790;18.750;2023-06-14T03:49:36;5.55;;;3.35;;
67041;SDS011;53949;47.790;18.750;2023-06-14T03:52:39;6.55;;;3.78;;
67041;SDS011;53949;47.790;18.750;2023-06-14T03:55:45;5.75;;;3.37;;
67041;SDS011;53949;47.790;18.750;2023-06-14T03:58:51;4.35;;;3.10;;
67041;SDS011;53949;47.790;18.750;2023-06-14T04:05:00;5.43;;;3.60;;
67041;SDS011;53949;47.790;18.750;2023-06-14T04:08:03;5.57;;;3.58;;
67041;SDS011;53949;47.790;18.750;2023-06-14T04:11:12;6.87;;;4.07;;
67041;SDS011;53949;47.790;18.750;2023-06-14T04:14:16;6.43;;;3.60;;
67041;SDS011;53949;47.790;18.750;2023-06-14T04:17:19;5.40;;;3.65;;
67041;SDS011;53949;47.790;18.750;2023-06-14T04:20:23;6.00;;;3.47;;
67041;SDS011;53949;47.790;18.750;2023-06-14T04:23:30;7.57;;;4.03;;
67041;SDS011;53949;47.790;18.750;2023-06-14T04:29:40;6.05;;;3.70;;
67041;SDS011;53949;47.790;18.750;2023-06-14T04:32:46;4.03;;;3.33;;
67041;SDS011;53949;47.790;18.750;2023-06-14T04:35:49;5.25;;;3.28;;
67041;SDS011;53949;47.790;18.750;2023-06-14T04:38:57;7.45;;;3.80;;
67041;SDS011;53949;47.790;18.750;2023-06-14T04:42:03;7.28;;;4.03;;
67041;SDS011;53949;47.790;18.750;2023-06-14T04:45:08;5.12;;;3.50;;
67041;SDS011;53949;47.790;18.750;2023-06-14T04:48:14;6.10;;;4.10;;
67041;SDS011;53949;47.790;18.750;2023-06-14T04:51:17;6.05;;;3.67;;
67041;SDS011;53949;47.790;18.750;2023-06-14T04:54:24;5.37;;;3.72;;
67041;SDS011;53949;47.790;18.750;2023-06-14T04:57:28;3.95;;;3.10;;
67041;SDS011;53949;47.790;18.750;2023-06-14T05:00:32;6.43;;;3.50;;
67041;SDS011;53949;47.790;18.750;2023-06-14T05:03:35;6.57;;;3.80;;
67041;SDS011;53949;47.790;18.750;2023-06-14T05:06:39;5.55;;;3.70;;
67041;SDS011;53949;47.790;18.750;2023-06-14T05:09:42;5.07;;;3.42;;
67041;SDS011;53949;47.790;18.750;2023-06-14T05:12:46;6.87;;;3.37;;
67041;SDS011;53949;47.790;18.750;2023-06-14T05:15:50;4.55;;;3.30;;
67041;SDS011;53949;47.790;18.750;2023-06-14T05:18:54;8.10;;;4.20;;
67041;SDS011;53949;47.790;18.750;2023-06-14T05:21:57;5.70;;;4.22;;
67041;SDS011;53949;47.790;18.750;2023-06-14T05:25:00;5.53;;;3.95;;
67041;SDS011;53949;47.790;18.750;2023-06-14T05:28:04;5.87;;;4.07;;
67041;SDS011;53949;47.790;18.750;2023-06-14T05:31:07;7.82;;;4.05;;
67041;SDS011;53949;47.790;18.750;2023-06-14T05:34:10;6.47;;;4.45;;
67041;SDS011;53949;47.790;18.750;2023-06-14T05:37:14;4.93;;;3.60;;
67041;SDS011;53949;47.790;18.750;2023-06-14T05:40:18;9.52;;;4.45;;
67041;SDS011;53949;47.790;18.750;2023-06-14T05:43:22;6.30;;;4.43;;
67041;SDS011;53949;47.790;18.750;2023-06-14T05:46:25;5.70;;;3.85;;
67041;SDS011;53949;47.790;18.750;2023-06-14T05:49:29;5.97;;;4.10;;
67041;SDS011;53949;47.790;18.750;2023-06-14T05:52:32;4.72;;;3.62;;
67041;SDS011;53949;47.790;18.750;2023-06-14T05:55:36;7.03;;;3.85;;
67041;SDS011;53949;47.790;18.750;2023-06-14T05:58:41;5.93;;;3.97;;
67041;SDS011;53949;47.790;18.750;2023-06-14T06:01:45;7.37;;;3.80;;
67041;SDS011;53949;47.790;18.750;2023-06-14T06:04:49;5.97;;;3.73;;
67041;SDS011;53949;47.790;18.750;2023-06-14T06:07:52;4.65;;;3.15;;
67041;SDS011;53949;47.790;18.750;2023-06-14T06:10:56;5.78;;;3.72;;
67041;SDS011;53949;47.790;18.750;2023-06-14T06:13:59;5.62;;;3.35;;
67041;SDS011;53949;47.790;18.750;2023-06-14T06:17:02;6.10;;;3.65;;
67041;SDS011;53949;47.790;18.750;2023-06-14T06:20:06;7.90;;;4.35;;
67041;SDS011;53949;47.790;18.750;2023-06-14T06:23:11;5.12;;;3.25;;
67041;SDS011;53949;47.790;18.750;2023-06-14T06:26:14;6.97;;;3.92;;
67041;SDS011;53949;47.790;18.750;2023-06-14T06:29:18;4.20;;;3.33;;
67041;SDS011;53949;47.790;18.750;2023-06-14T06:32:23;4.80;;;3.45;;
67041;SDS011;53949;47.790;18.750;2023-06-14T06:35:26;4.03;;;2.90;;
67041;SDS011;53949;47.790;18.750;2023-06-14T06:38:29;4.62;;;3.15;;
67041;SDS011;53949;47.790;18.750;2023-06-14T06:41:33;3.53;;;3.12;;
67041;SDS011;53949;47.790;18.750;2023-06-14T06:44:37;6.37;;;3.22;;
67041;SDS011;53949;47.790;18.750;2023-06-14T06:47:41;4.55;;;2.97;;
67041;SDS011;53949;47.790;18.750;2023-06-14T06:50:44;4.90;;;3.28;;
67041;SDS011;53949;47.790;18.750;2023-06-14T06:53:52;5.10;;;3.87;;
67041;SDS011;53949;47.790;18.750;2023-06-14T06:56:56;6.00;;;3.30;;
67041;SDS011;53949;47.790;18.750;2023-06-14T07:00:00;4.65;;;3.17;;
67041;SDS011;53949;47.790;18.750;2023-06-14T07:03:03;5.82;;;3.42;;
67041;SDS011;53949;47.790;18.750;2023-06-14T07:06:06;7.62;;;3.17;;
67041;SDS011;53949;47.790;18.750;2023-06-14T07:09:09;3.80;;;3.05;;
67041;SDS011;53949;47.790;18.750;2023-06-14T07:12:17;5.28;;;3.55;;
67041;SDS011;53949;47.790;18.750;2023-06-14T07:15:20;5.32;;;3.47;;
67041;SDS011;53949;47.790;18.750;2023-06-14T07:18:23;3.47;;;2.67;;
67041;SDS011;53949;47.790;18.750;2023-06-14T07:21:27;5.15;;;3.12;;
67041;SDS011;53949;47.790;18.750;2023-06-14T07:24:30;3.87;;;3.05;;
67041;SDS011;53949;47.790;18.750;2023-06-14T07:27:34;5.40;;;2.78;;
67041;SDS011;53949;47.790;18.750;2023-06-14T07:30:37;6.10;;;3.00;;
67041;SDS011;53949;47.790;18.750;2023-06-14T07:33:40;3.60;;;2.83;;
67041;SDS011;53949;47.790;18.750;2023-06-14T07:36:44;7.00;;;3.22;;
67041;SDS011;53949;47.790;18.750;2023-06-14T07:39:47;5.43;;;3.20;;
67041;SDS011;53949;47.790;18.750;2023-06-14T07:42:51;3.83;;;2.90;;
67041;SDS011;53949;47.790;18.750;2023-06-14T07:45:56;4.03;;;2.72;;
67041;SDS011;53949;47.790;18.750;2023-06-14T07:49:09;7.32;;;3.95;;
67041;SDS011;53949;47.790;18.750;2023-06-14T07:52:13;5.55;;;3.47;;
67041;SDS011;53949;47.790;18.750;2023-06-14T07:55:16;6.53;;;3.30;;
67041;SDS011;53949;47.790;18.750;2023-06-14T07:58:19;5.80;;;3.28;;
67041;SDS011;53949;47.790;18.750;2023-06-14T08:01:23;6.90;;;3.45;;
67041;SDS011;53949;47.790;18.750;2023-06-14T08:04:28;6.97;;;3.12;;
67041;SDS011;53949;47.790;18.750;2023-06-14T08:07:31;5.28;;;3.40;;
67041;SDS011;53949;47.790;18.750;2023-06-14T08:10:34;8.40;;;3.17;;
67041;SDS011;53949;47.790;18.750;2023-06-14T08:13:37;7.50;;;3.17;;
67041;SDS011;53949;47.790;18.750;2023-06-14T08:16:40;7.22;;;3.53;;
67041;SDS011;53949;47.790;18.750;2023-06-14T08:19:43;4.00;;;3.00;;
67041;SDS011;53949;47.790;18.750;2023-06-14T08:22:47;5.75;;;3.65;;
67041;SDS011;53949;47.790;18.750;2023-06-14T08:25:51;6.82;;;3.28;;
67041;SDS011;53949;47.790;18.750;2023-06-14T08:28:56;4.70;;;3.22;;
67041;SDS011;53949;47.790;18.750;2023-06-14T08:31:59;6.62;;;3.22;;
67041;SDS011;53949;47.790;18.750;2023-06-14T08:35:03;5.25;;;3.25;;
67041;SDS011;53949;47.790;18.750;2023-06-14T08:38:09;5.28;;;3.50;;
67041;SDS011;53949;47.790;18.750;2023-06-14T08:41:15;4.60;;;3.62;;
67041;SDS011;53949;47.790;18.750;2023-06-14T08:44:23;5.03;;;3.08;;
67041;SDS011;53949;47.790;18.750;2023-06-14T08:47:27;4.37;;;3.37;;
67041;SDS011;53949;47.790;18.750;2023-06-14T08:50:31;6.68;;;3.60;;
67041;SDS011;53949;47.790;18.750;2023-06-14T08:53:36;5.28;;;3.50;;
67041;SDS011;53949;47.790;18.750;2023-06-14T08:56:45;7.68;;;3.80;;
67041;SDS011;53949;47.790;18.750;2023-06-14T08:59:52;5.25;;;3.40;;
67041;SDS011;53949;47.790;18.750;2023-06-14T09:02:57;3.55;;;2.87;;
67041;SDS011;53949;47.790;18.750;2023-06-14T09:06:02;4.65;;;3.40;;
67041;SDS011;53949;47.790;18.750;2023-06-14T09:09:06;6.30;;;3.20;;
67041;SDS011;53949;47.790;18.750;2023-06-14T09:12:10;5.83;;;3.33;;
67041;SDS011;53949;47.790;18.750;2023-06-14T09:15:15;6.05;;;3.62;;
67041;SDS011;53949;47.790;18.750;2023-06-14T09:18:19;5.57;;;3.67;;
67041;SDS011;53949;47.790;18.750;2023-06-14T09:21:22;5.50;;;3.30;;
67041;SDS011;53949;47.790;18.750;2023-06-14T09:24:26;6.45;;;3.70;;
67041;SDS011;53949;47.790;18.750;2023-06-14T09:27:29;5.65;;;3.90;;
67041;SDS011;53949;47.790;18.750;2023-06-14T09:30:36;5.80;;;3.45;;
67041;SDS011;53949;47.790;18.750;2023-06-14T09:36:53;6.82;;;3.40;;
67041;SDS011;53949;47.790;18.750;2023-06-14T09:40:01;5.82;;;3.33;;
67041;SDS011;53949;47.790;18.750;2023-06-14T09:43:06;5.53;;;3.67;;
67041;SDS011;53949;47.790;18.750;2023-06-14T09:46:13;4.72;;;3.70;;
67041;SDS011;53949;47.790;18.750;2023-06-14T09:49:16;4.87;;;3.80;;
67041;SDS011;53949;47.790;18.750;2023-06-14T09:52:20;6.03;;;4.12;;
67041;SDS011;53949;47.790;18.750;2023-06-14T09:55:24;7.55;;;3.10;;
67041;SDS011;53949;47.790;18.750;2023-06-14T09:58:30;5.28;;;3.03;;
67041;SDS011;53949;47.790;18.750;2023-06-14T10:01:33;4.60;;;3.23;;
67041;SDS011;53949;47.790;18.750;2023-06-14T10:04:37;6.25;;;3.65;;
67041;SDS011;53949;47.790;18.750;2023-06-14T10:07:44;4.35;;;3.30;;
67041;SDS011;53949;47.790;18.750;2023-06-14T10:10:52;5.20;;;3.22;;
67041;SDS011;53949;47.790;18.750;2023-06-14T10:23:16;8.25;;;3.50;;
67041;SDS011;53949;47.790;18.750;2023-06-14T10:26:22;7.15;;;3.55;;
67041;SDS011;53949;47.790;18.750;2023-06-14T10:32:33;5.78;;;3.60;;
67041;SDS011;53949;47.790;18.750;2023-06-14T10:35:36;3.95;;;3.03;;
67041;SDS011;53949;47.790;18.750;2023-06-14T10:38:41;4.40;;;3.17;;
67041;SDS011;53949;47.790;18.750;2023-06-14T10:41:54;3.92;;;3.03;;
67041;SDS011;53949;47.790;18.750;2023-06-14T10:44:59;3.60;;;2.23;;
67041;SDS011;53949;47.790;18.750;2023-06-14T10:48:03;5.68;;;3.20;;
67041;SDS011;53949;47.790;18.750;2023-06-14T10:51:14;4.28;;;3.03;;
67041;SDS011;53949;47.790;18.750;2023-06-14T10:54:23;3.22;;;2.58;;
67041;SDS011;53949;47.790;18.750;2023-06-14T10:57:28;6.35;;;3.05;;
67041;SDS011;53949;47.790;18.750;2023-06-14T11:00:38;5.10;;;3.47;;
67041;SDS011;53949;47.790;18.750;2023-06-14T11:03:51;4.70;;;2.55;;
67041;SDS011;53949;47.790;18.750;2023-06-14T11:07:00;6.87;;;3.62;;
67041;SDS011;53949;47.790;18.750;2023-06-14T11:10:43;4.15;;;3.05;;
67041;SDS011;53949;47.790;18.750;2023-06-14T11:13:48;4.57;;;2.95;;
67041;SDS011;53949;47.790;18.750;2023-06-14T11:16:52;3.00;;;2.67;;
67041;SDS011;53949;47.790;18.750;2023-06-14T11:20:08;3.12;;;2.60;;
67041;SDS011;53949;47.790;18.750;2023-06-14T11:23:25;3.22;;;2.55;;
67041;SDS011;53949;47.790;18.750;2023-06-14T11:26:29;3.65;;;2.40;;
67041;SDS011;53949;47.790;18.750;2023-06-14T11:29:33;5.00;;;3.65;;
67041;SDS011;53949;47.790;18.750;2023-06-14T11:32:37;4.55;;;2.37;;
67041;SDS011;53949;47.790;18.750;2023-06-14T11:35:40;3.83;;;2.67;;
67041;SDS011;53949;47.790;18.750;2023-06-14T11:38:45;5.00;;;2.60;;
67041;SDS011;53949;47.790;18.750;2023-06-14T11:41:48;4.68;;;2.83;;
67041;SDS011;53949;47.790;18.750;2023-06-14T11:44:53;4.35;;;2.62;;
67041;SDS011;53949;47.790;18.750;2023-06-14T11:48:10;3.25;;;2.58;;
67041;SDS011;53949;47.790;18.750;2023-06-14T11:51:13;4.60;;;2.65;;
67041;SDS011;53949;47.790;18.750;2023-06-14T11:54:16;4.00;;;2.50;;
67041;SDS011;53949;47.790;18.750;2023-06-14T11:57:20;7.95;;;2.40;;
67041;SDS011;53949;47.790;18.750;2023-06-14T12:00:25;5.70;;;2.70;;
67041;SDS011;53949;47.790;18.750;2023-06-14T12:03:30;2.00;;;1.90;;
67041;SDS011;53949;47.790;18.750;2023-06-14T12:06:33;1.95;;;1.75;;
67041;SDS011;53949;47.790;18.750;2023-06-14T12:09:39;2.75;;;2.45;;
67041;SDS011;53949;47.790;18.750;2023-06-14T12:12:42;2.97;;;1.90;;
67041;SDS011;53949;47.790;18.750;2023-06-14T12:15:53;2.17;;;1.80;;
67041;SDS011;53949;47.790;18.750;2023-06-14T12:18:59;2.50;;;1.77;;
67041;SDS011;53949;47.790;18.750;2023-06-14T12:22:04;3.17;;;1.80;;
67041;SDS011;53949;47.790;18.750;2023-06-14T12:25:07;2.10;;;1.80;;
67041;SDS011;53949;47.790;18.750;2023-06-14T12:28:12;1.80;;;1.70;;
67041;SDS011;53949;47.790;18.750;2023-06-14T12:31:15;1.42;;;1.33;;
67041;SDS011;53949;47.790;18.750;2023-06-14T12:34:20;3.90;;;1.80;;
67041;SDS011;53949;47.790;18.750;2023-06-14T12:40:28;2.75;;;2.25;;
67041;SDS011;53949;47.790;18.750;2023-06-14T12:43:33;2.10;;;1.70;;
67041;SDS011;53949;47.790;18.750;2023-06-14T12:46:36;2.25;;;1.60;;
67041;SDS011;53949;47.790;18.750;2023-06-14T12:49:42;2.22;;;1.70;;
67041;SDS011;53949;47.790;18.750;2023-06-14T12:52:45;2.70;;;1.37;;
67041;SDS011;53949;47.790;18.750;2023-06-14T12:55:48;3.70;;;1.73;;
67041;SDS011;53949;47.790;18.750;2023-06-14T12:58:52;2.93;;;2.10;;
67041;SDS011;53949;47.790;18.750;2023-06-14T13:01:55;1.85;;;1.75;;
67041;SDS011;53949;47.790;18.750;2023-06-14T13:04:58;1.83;;;1.70;;
67041;SDS011;53949;47.790;18.750;2023-06-14T13:08:02;3.28;;;1.95;;
67041;SDS011;53949;47.790;18.750;2023-06-14T13:11:06;2.03;;;1.77;;
67041;SDS011;53949;47.790;18.750;2023-06-14T13:14:10;2.90;;;1.60;;
67041;SDS011;53949;47.790;18.750;2023-06-14T13:17:27;2.37;;;1.60;;
67041;SDS011;53949;47.790;18.750;2023-06-14T13:20:31;3.45;;;1.77;;
67041;SDS011;53949;47.790;18.750;2023-06-14T13:23:40;2.72;;;1.92;;
67041;SDS011;53949;47.790;18.750;2023-06-14T13:26:43;2.30;;;1.80;;
67041;SDS011;53949;47.790;18.750;2023-06-14T13:29:47;2.70;;;1.45;;
67041;SDS011;53949;47.790;18.750;2023-06-14T13:32:50;4.47;;;1.67;;
67041;SDS011;53949;47.790;18.750;2023-06-14T13:35:54;2.25;;;1.87;;
67041;SDS011;53949;47.790;18.750;2023-06-14T13:38:57;3.47;;;1.52;;
67041;SDS011;53949;47.790;18.750;2023-06-14T13:42:01;2.60;;;1.90;;
67041;SDS011;53949;47.790;18.750;2023-06-14T13:45:06;2.20;;;2.00;;
67041;SDS011;53949;47.790;18.750;2023-06-14T13:48:09;3.08;;;1.70;;
67041;SDS011;53949;47.790;18.750;2023-06-14T13:51:13;5.07;;;1.80;;
67041;SDS011;53949;47.790;18.750;2023-06-14T13:54:17;2.00;;;1.70;;
67041;SDS011;53949;47.790;18.750;2023-06-14T13:57:22;2.25;;;1.50;;
67041;SDS011;53949;47.790;18.750;2023-06-14T14:00:25;1.60;;;1.50;;
67041;SDS011;53949;47.790;18.750;2023-06-14T14:03:30;1.90;;;1.60;;
67041;SDS011;53949;47.790;18.750;2023-06-14T14:06:34;1.35;;;1.33;;
67041;SDS011;53949;47.790;18.750;2023-06-14T14:09:39;2.45;;;1.55;;
67041;SDS011;53949;47.790;18.750;2023-06-14T14:12:43;1.98;;;1.62;;
67041;SDS011;53949;47.790;18.750;2023-06-14T14:15:48;1.85;;;1.70;;
67041;SDS011;53949;47.790;18.750;2023-06-14T14:18:56;1.67;;;1.50;;
67041;SDS011;53949;47.790;18.750;2023-06-14T14:21:59;1.52;;;1.42;;
67041;SDS011;53949;47.790;18.750;2023-06-14T14:28:06;1.45;;;1.35;;
67041;SDS011;53949;47.790;18.750;2023-06-14T14:31:10;1.90;;;1.60;;
67041;SDS011;53949;47.790;18.750;2023-06-14T14:34:13;1.63;;;1.53;;
67041;SDS011;53949;47.790;18.750;2023-06-14T14:37:16;1.65;;;1.50;;
67041;SDS011;53949;47.790;18.750;2023-06-14T14:40:19;1.40;;;1.30;;
67041;SDS011;53949;47.790;18.750;2023-06-14T14:43:22;2.28;;;1.60;;
67041;SDS011;53949;47.790;18.750;2023-06-14T14:46:26;1.77;;;1.60;;
67041;SDS011;53949;47.790;18.750;2023-06-14T14:49:34;1.50;;;1.40;;
67041;SDS011;53949;47.790;18.750;2023-06-14T14:52:37;2.83;;;1.60;;
67041;SDS011;53949;47.790;18.750;2023-06-14T14:55:40;1.77;;;1.67;;
67041;SDS011;53949;47.790;18.750;2023-06-14T14:58:44;4.00;;;1.60;;
67041;SDS011;53949;47.790;18.750;2023-06-14T15:01:47;4.10;;;1.92;;
67041;SDS011;53949;47.790;18.750;2023-06-14T15:04:51;1.98;;;1.60;;
67041;SDS011;53949;47.790;18.750;2023-06-14T15:07:55;2.80;;;1.80;;
67041;SDS011;53949;47.790;18.750;2023-06-14T15:10:58;2.25;;;1.62;;
67041;SDS011;53949;47.790;18.750;2023-06-14T15:14:01;1.73;;;1.62;;
67041;SDS011;53949;47.790;18.750;2023-06-14T15:17:05;1.90;;;1.80;;
67041;SDS011;53949;47.790;18.750;2023-06-14T15:20:10;1.70;;;1.60;;
67041;SDS011;53949;47.790;18.750;2023-06-14T15:23:15;1.70;;;1.60;;
67041;SDS011;53949;47.790;18.750;2023-06-14T15:26:22;1.98;;;1.62;;
67041;SDS011;53949;47.790;18.750;2023-06-14T15:29:27;3.25;;;1.55;;
67041;SDS011;53949;47.790;18.750;2023-06-14T15:32:30;1.80;;;1.70;;
67041;SDS011;53949;47.790;18.750;2023-06-14T15:35:34;1.98;;;1.80;;
67041;SDS011;53949;47.790;18.750;2023-06-14T15:38:37;1.48;;;1.37;;
67041;SDS011;53949;47.790;18.750;2023-06-14T15:41:40;1.58;;;1.30;;
67041;SDS011;53949;47.790;18.750;2023-06-14T15:44:43;4.75;;;1.70;;
67041;SDS011;53949;47.790;18.750;2023-06-14T15:47:46;2.03;;;1.50;;
67041;SDS011;53949;47.790;18.750;2023-06-14T15:50:49;2.25;;;1.60;;
67041;SDS011;53949;47.790;18.750;2023-06-14T15:56:56;1.80;;;1.60;;
67041;SDS011;53949;47.790;18.750;2023-06-14T16:00:00;1.87;;;1.58;;
67041;SDS011;53949;47.790;18.750;2023-06-14T16:03:06;2.53;;;1.37;;
67041;SDS011;53949;47.790;18.750;2023-06-14T16:06:09;1.85;;;1.60;;
67041;SDS011;53949;47.790;18.750;2023-06-14T16:09:12;3.20;;;1.48;;
67041;SDS011;53949;47.790;18.750;2023-06-14T16:12:16;2.25;;;1.60;;
67041;SDS011;53949;47.790;18.750;2023-06-14T16:15:19;1.77;;;1.60;;
67041;SDS011;53949;47.790;18.750;2023-06-14T16:18:22;1.70;;;1.60;;
67041;SDS011;53949;47.790;18.750;2023-06-14T16:21:25;2.22;;;1.92;;
67041;SDS011;53949;47.790;18.750;2023-06-14T16:27:31;1.67;;;1.35;;
67041;SDS011;53949;47.790;18.750;2023-06-14T16:30:34;3.42;;;1.75;;
67041;SDS011;53949;47.790;18.750;2023-06-14T16:33:37;2.00;;;1.60;;
67041;SDS011;53949;47.790;18.750;2023-06-14T16:36:42;1.90;;;1.73;;
67041;SDS011;53949;47.790;18.750;2023-06-14T16:39:47;1.75;;;1.50;;
67041;SDS011;53949;47.790;18.750;2023-06-14T16:42:50;3.58;;;1.70;;
67041;SDS011;53949;47.790;18.750;2023-06-14T16:45:54;2.37;;;1.57;;
67041;SDS011;53949;47.790;18.750;2023-06-14T16:48:58;2.03;;;1.67;;
67041;SDS011;53949;47.790;18.750;2023-06-14T16:52:01;1.90;;;1.52;;
67041;SDS011;53949;47.790;18.750;2023-06-14T16:55:04;2.00;;;1.37;;
67041;SDS011;53949;47.790;18.750;2023-06-14T16:58:08;1.87;;;1.77;;
67041;SDS011;53949;47.790;18.750;2023-06-14T17:01:12;1.95;;;1.77;;
67041;SDS011;53949;47.790;18.750;2023-06-14T17:04:16;1.70;;;1.60;;
67041;SDS011;53949;47.790;18.750;2023-06-14T17:07:19;1.60;;;1.50;;
67041;SDS011;53949;47.790;18.750;2023-06-14T17:10:22;1.80;;;1.60;;
67041;SDS011;53949;47.790;18.750;2023-06-14T17:13:26;2.80;;;1.40;;
67041;SDS011;53949;47.790;18.750;2023-06-14T17:16:29;3.53;;;1.60;;
67041;SDS011;53949;47.790;18.750;2023-06-14T17:19:32;2.97;;;1.37;;
67041;SDS011;53949;47.790;18.750;2023-06-14T17:22:37;2.33;;;1.30;;
67041;SDS011;53949;47.790;18.750;2023-06-14T17:25:43;1.85;;;1.65;;
67041;SDS011;53949;47.790;18.750;2023-06-14T17:28:48;2.40;;;1.48;;
67041;SDS011;53949;47.790;18.750;2023-06-14T17:31:53;1.75;;;1.65;;
67041;SDS011;53949;47.790;18.750;2023-06-14T17:34:58;1.80;;;1.65;;
67041;SDS011;53949;47.790;18.750;2023-06-14T17:38:03;1.85;;;1.75;;
67041;SDS011;53949;47.790;18.750;2023-06-14T17:44:35;1.60;;;1.45;;
67041;SDS011;53949;47.790;18.750;2023-06-14T17:47:38;1.48;;;1.20;;
67041;SDS011;53949;47.790;18.750;2023-06-14T17:50:42;2.45;;;1.62;;
67041;SDS011;53949;47.790;18.750;2023-06-14T17:53:45;1.97;;;1.60;;
67041;SDS011;53949;47.790;18.750;2023-06-14T17:56:49;1.50;;;1.40;;
67041;SDS011;53949;47.790;18.750;2023-06-14T17:59:52;2.20;;;1.85;;
67041;SDS011;53949;47.790;18.750;2023-06-14T18:02:57;1.85;;;1.70;;
67041;SDS011;53949;47.790;18.750;2023-06-14T18:06:02;2.40;;;1.80;;
67041;SDS011;53949;47.790;18.750;2023-06-14T18:09:08;3.03;;;1.80;;
67041;SDS011;53949;47.790;18.750;2023-06-14T18:12:13;4.53;;;1.85;;
67041;SDS011;53949;47.790;18.750;2023-06-14T18:15:16;1.65;;;1.55;;
67041;SDS011;53949;47.790;18.750;2023-06-14T18:21:23;3.08;;;1.70;;
67041;SDS011;53949;47.790;18.750;2023-06-14T18:24:26;5.20;;;2.03;;
67041;SDS011;53949;47.790;18.750;2023-06-14T18:27:29;3.72;;;2.00;;
67041;SDS011;53949;47.790;18.750;2023-06-14T18:30:33;2.70;;;2.22;;
67041;SDS011;53949;47.790;18.750;2023-06-14T18:33:37;2.40;;;1.83;;
67041;SDS011;53949;47.790;18.750;2023-06-14T18:36:41;3.15;;;2.00;;
67041;SDS011;53949;47.790;18.750;2023-06-14T18:39:44;3.10;;;2.20;;
67041;SDS011;53949;47.790;18.750;2023-06-14T18:42:48;2.15;;;1.95;;
67041;SDS011;53949;47.790;18.750;2023-06-14T18:45:51;2.20;;;2.00;;
67041;SDS011;53949;47.790;18.750;2023-06-14T18:48:55;2.97;;;2.30;;
67041;SDS011;53949;47.790;18.750;2023-06-14T18:51:59;4.47;;;2.20;;
67041;SDS011;53949;47.790;18.750;2023-06-14T18:55:03;2.50;;;2.30;;
67041;SDS011;53949;47.790;18.750;2023-06-14T18:58:09;2.33;;;1.80;;